Charles Darwin — GDLS — position and weather

sailwx.info

Track history (hours):
 
Tides and Currents Weather Stations Pressure Air Temp Water Temp Dewpoint Dewpoint Depression Visibility Wind Speed Wind Dir Waves Ship Positions

Oceanographic research ship Charles Darwin (UK)

Detailed information on ship capabilities available from University of Delaware's Ocean Information Center.

Last reported at 2020-Jan-28 17:58 UTC. Time now 2020-Jan-28 20:58 UTC.
Position N 40°42' W 074°09'.

Length 70 m; draft 5.6 m.

Type: Cargo ship. MMSI: 235011460.

Date/timePositionNaut miles runAvg speedWind from/ knotsBaromVisibWave heightAir tempDewpointWater temp
2020-Jan-28 17:58N 40°42' W 074°09'0 0.0
2020-Jan-28 13:58N 40°42' W 074°09'0 0.0
2020-Jan-28 13:28N 40°42' W 074°09'0 0.0
2020-Jan-28 10:58N 40°42' W 074°09'0 0.0
2020-Jan-28 04:30N 40°42' W 074°09'0 0.0
2020-Jan-28 03:31N 40°42' W 074°09'0 0.0
2020-Jan-27 23:58N 40°42' W 074°09'0 0.0
2020-Jan-27 21:33N 40°42' W 074°09'0 0.0
2020-Jan-27 17:48N 40°42' W 074°09'0 0.0
2020-Jan-27 16:48N 40°42' W 074°09'0 0.0
2020-Jan-27 16:21N 40°42' W 074°09'0 0.0
2020-Jan-27 15:15N 40°42' W 074°09'0 0.0
2020-Jan-27 12:27N 40°42' W 074°09'0 0.0
2020-Jan-27 11:57N 40°42' W 074°09'0 0.0
2020-Jan-27 11:27N 40°42' W 074°09'0 0.0
2020-Jan-27 05:39N 40°42' W 074°09'0 0.0
2020-Jan-27 04:00N 40°42' W 074°09'0 0.0
2020-Jan-27 01:21N 40°42' W 074°09'0 0.0
2020-Jan-26 22:27N 40°42' W 074°09'0 0.0
2020-Jan-26 22:00N 40°42' W 074°09'0 0.0
2020-Jan-26 21:27N 40°42' W 074°09'0 0.0
2020-Jan-26 19:57N 40°42' W 074°09'0 0.0
2020-Jan-26 18:27N 40°42' W 074°09'0 0.0
2020-Jan-26 18:00N 40°42' W 074°09'0 0.0
2020-Jan-26 15:27N 40°42' W 074°09'0 0.0
2020-Jan-26 14:30N 40°42' W 074°09'0 0.0
2020-Jan-26 13:57N 40°42' W 074°09'0 0.0
2020-Jan-26 11:57N 40°42' W 074°09'0 0.0
2020-Jan-26 11:30N 40°42' W 074°09'0 0.0
2020-Jan-26 11:00N 40°42' W 074°09'0 0.0
2020-Jan-26 10:00N 40°42' W 074°09'0 0.0
2020-Jan-26 09:30N 40°42' W 074°09'0 0.0
2020-Jan-26 05:27N 40°42' W 074°09'0 0.0
2020-Jan-26 01:27N 40°42' W 074°09'0 0.0
2020-Jan-26 01:00N 40°42' W 074°09'0 0.0
2020-Jan-25 22:27N 40°42' W 074°09'0 0.0
2020-Jan-25 18:27N 40°42' W 074°09'0 0.0
2020-Jan-25 17:57N 40°42' W 074°09'0 0.0
2020-Jan-25 17:27N 40°42' W 074°09'0 0.0
2020-Jan-25 14:57N 40°42' W 074°09'0 0.0
2020-Jan-25 13:12N 40°42' W 074°09'0 0.0
2020-Jan-25 12:30N 40°42' W 074°09'0 0.0
2020-Jan-25 11:57N 40°42' W 074°09'0 0.0
2020-Jan-25 11:15N 40°42' W 074°09'0 0.0
2020-Jan-25 07:51N 40°42' W 074°09'0 0.0
2020-Jan-25 07:27N 40°42' W 074°09'0 0.0
2020-Jan-25 03:27N 40°42' W 074°09'0 0.0
2020-Jan-25 00:57N 40°42' W 074°09'0 0.0
2020-Jan-24 22:48N 40°42' W 074°09'10 4.2
2020-Jan-24 20:30N 40°34' W 074°02'4 7.9
2020-Jan-24 20:00N 40°31' W 073°59'4 8.2
2020-Jan-24 19:29N 40°29' W 073°53'24 7.0
2020-Jan-24 16:00N 40°05' W 073°44'9 8.5
2020-Jan-24 14:54N 39°56' W 073°42'27 8.1
2020-Jan-24 11:34N 39°31' W 073°55'8 9.0
2020-Jan-24 10:43N 39°25' W 074°01'3 9.1
2020-Jan-24 10:26N 39°23' W 074°02'6 8.9
2020-Jan-24 09:49N 39°18' W 074°07'  
Track history (hours):
 
Tides and Currents Weather Stations Pressure Air Temp Water Temp Dewpoint Dewpoint Depression Visibility Wind Speed Wind Dir Waves Ship Positions

Oceanographic research ship Charles Darwin (UK)

Detailed information on ship capabilities available from University of Delaware's Ocean Information Center.

Last reported at 2020-Jan-28 17:58 UTC. Time now 2020-Jan-28 20:58 UTC.
Position N 40°42' W 074°09'.

Length 70 m; draft 5.6 m.

Type: Cargo ship. MMSI: 235011460.

Date/timePositionNaut miles runAvg speedWind from/ knotsBaromVisibWave heightAir tempDewpointWater temp
2020-Jan-28 17:58N 40°42' W 074°09'0 0.0
2020-Jan-28 13:58N 40°42' W 074°09'0 0.0
2020-Jan-28 13:28N 40°42' W 074°09'0 0.0
2020-Jan-28 10:58N 40°42' W 074°09'0 0.0
2020-Jan-28 04:30N 40°42' W 074°09'0 0.0
2020-Jan-28 03:31N 40°42' W 074°09'0 0.0
2020-Jan-27 23:58N 40°42' W 074°09'0 0.0
2020-Jan-27 21:33N 40°42' W 074°09'0 0.0
2020-Jan-27 17:48N 40°42' W 074°09'0 0.0
2020-Jan-27 16:48N 40°42' W 074°09'0 0.0
2020-Jan-27 16:21N 40°42' W 074°09'0 0.0
2020-Jan-27 15:15N 40°42' W 074°09'0 0.0
2020-Jan-27 12:27N 40°42' W 074°09'0 0.0
2020-Jan-27 11:57N 40°42' W 074°09'0 0.0
2020-Jan-27 11:27N 40°42' W 074°09'0 0.0
2020-Jan-27 05:39N 40°42' W 074°09'0 0.0
2020-Jan-27 04:00N 40°42' W 074°09'0 0.0
2020-Jan-27 01:21N 40°42' W 074°09'0 0.0
2020-Jan-26 22:27N 40°42' W 074°09'0 0.0
2020-Jan-26 22:00N 40°42' W 074°09'0 0.0
2020-Jan-26 21:27N 40°42' W 074°09'0 0.0
2020-Jan-26 19:57N 40°42' W 074°09'0 0.0
2020-Jan-26 18:27N 40°42' W 074°09'0 0.0
2020-Jan-26 18:00N 40°42' W 074°09'0 0.0
2020-Jan-26 15:27N 40°42' W 074°09'0 0.0
2020-Jan-26 14:30N 40°42' W 074°09'0 0.0
2020-Jan-26 13:57N 40°42' W 074°09'0 0.0
2020-Jan-26 11:57N 40°42' W 074°09'0 0.0
2020-Jan-26 11:30N 40°42' W 074°09'0 0.0
2020-Jan-26 11:00N 40°42' W 074°09'0 0.0
2020-Jan-26 10:00N 40°42' W 074°09'0 0.0
2020-Jan-26 09:30N 40°42' W 074°09'0 0.0
2020-Jan-26 05:27N 40°42' W 074°09'0 0.0
2020-Jan-26 01:27N 40°42' W 074°09'0 0.0
2020-Jan-26 01:00N 40°42' W 074°09'0 0.0
2020-Jan-25 22:27N 40°42' W 074°09'0 0.0
2020-Jan-25 18:27N 40°42' W 074°09'0 0.0
2020-Jan-25 17:57N 40°42' W 074°09'0 0.0
2020-Jan-25 17:27N 40°42' W 074°09'0 0.0
2020-Jan-25 14:57N 40°42' W 074°09'0 0.0
2020-Jan-25 13:12N 40°42' W 074°09'0 0.0
2020-Jan-25 12:30N 40°42' W 074°09'0 0.0
2020-Jan-25 11:57N 40°42' W 074°09'0 0.0
2020-Jan-25 11:15N 40°42' W 074°09'0 0.0
2020-Jan-25 07:51N 40°42' W 074°09'0 0.0
2020-Jan-25 07:27N 40°42' W 074°09'0 0.0
2020-Jan-25 03:27N 40°42' W 074°09'0 0.0
2020-Jan-25 00:57N 40°42' W 074°09'0 0.0
2020-Jan-24 22:48N 40°42' W 074°09'10 4.2
2020-Jan-24 20:30N 40°34' W 074°02'4 7.9
2020-Jan-24 20:00N 40°31' W 073°59'4 8.2
2020-Jan-24 19:29N 40°29' W 073°53'24 7.0
2020-Jan-24 16:00N 40°05' W 073°44'9 8.5
2020-Jan-24 14:54N 39°56' W 073°42'27 8.1
2020-Jan-24 11:34N 39°31' W 073°55'8 9.0
2020-Jan-24 10:43N 39°25' W 074°01'3 9.1
2020-Jan-24 10:26N 39°23' W 074°02'6 8.9
2020-Jan-24 09:49N 39°18' W 074°07'  

Dump ship's entire track history